Time;durP1;ratioP1;P1;durP2;ratioP2;P2;SDS_P1;SDS_P2;PMS_P1;PMS_P2;Temp;Humidity;BMP_temperature;BMP_pressure;BME280_temperature;BME280_humidity;BME280_pressure;Samples;Min_cycle;Max_cycle;Signal;HPM_P1;HPM_P2
2023/02/18 00:01:17;;;;;;;18.65;4.20;;;;;;;8.17;73.00;99550.94;5099956;28;20038;-65
2023/02/18 00:03:43;;;;;;;18.10;3.65;;;;;;;8.17;73.67;99561.66;5097992;28;20039;-66
2023/02/18 00:06:14;;;;;;;14.55;3.80;;;;;;;8.09;74.31;99587.88;5079936;28;20036;-66
2023/02/18 00:08:41;;;;;;;23.50;4.50;;;;;;;8.17;74.14;99606.38;5099242;28;20038;-66
2023/02/18 00:11:07;;;;;;;27.52;5.35;;;;;;;8.12;73.83;99619.63;5099525;28;20028;-66
2023/02/18 00:13:33;;;;;;;28.50;4.95;;;;;;;8.09;74.44;99622.72;5097560;28;20037;-66
2023/02/18 00:16:03;;;;;;;22.92;3.92;;;;;;;7.97;73.73;99601.94;5098573;28;20039;-66
2023/02/18 00:18:28;;;;;;;26.23;4.93;;;;;;;8.08;73.59;99637.13;5097581;28;20088;-66
2023/02/18 00:20:54;;;;;;;26.65;5.55;;;;;;;7.92;73.55;99612.47;5100006;28;20430;-66
2023/02/18 00:23:19;;;;;;;28.92;5.72;;;;;;;7.96;73.06;99645.84;5097408;28;20111;-67
2023/02/18 00:25:44;;;;;;;27.42;5.78;;;;;;;8.00;73.61;99660.44;5097833;28;20024;-66
2023/02/18 00:28:10;;;;;;;23.77;5.03;;;;;;;7.93;73.12;99650.78;5099156;28;20042;-66
2023/02/18 00:30:42;;;;;;;30.30;5.05;;;;;;;7.98;73.57;99665.22;5097065;28;20105;-66
2023/02/18 00:33:08;;;;;;;23.98;3.92;;;;;;;7.92;73.00;99674.06;5091002;28;20089;-66
2023/02/18 00:35:33;;;;;;;22.58;5.75;;;;;;;7.88;73.00;99688.06;5097695;28;20028;-66
2023/02/18 00:37:59;;;;;;;25.83;5.03;;;;;;;7.93;72.51;99697.13;5100168;28;20031;-66
2023/02/18 00:40:24;;;;;;;27.70;5.70;;;;;;;7.82;71.91;99710.34;5098076;28;20040;-66
2023/02/18 00:42:50;;;;;;;25.85;4.45;;;;;;;7.87;72.03;99687.25;5097567;28;20039;-66
2023/02/18 00:45:15;;;;;;;21.15;4.82;;;;;;;7.92;72.92;99721.47;5096813;28;20384;-66
2023/02/18 00:47:41;;;;;;;25.70;6.63;;;;;;;7.75;73.03;99708.50;5096770;28;20020;-66
2023/02/18 00:50:08;;;;;;;18.92;4.35;;;;;;;7.86;72.34;99712.41;5096110;28;20454;-66
2023/02/18 00:52:33;;;;;;;24.38;5.15;;;;;;;7.76;73.03;99712.00;5096811;28;20031;-66
2023/02/18 00:54:59;;;;;;;26.20;6.78;;;;;;;7.70;73.22;99686.06;5097131;28;20035;-66
2023/02/18 00:57:24;;;;;;;26.20;4.82;;;;;;;7.75;72.78;99729.13;5098671;28;20068;-66
2023/02/18 00:59:49;;;;;;;20.95;4.82;;;;;;;7.65;73.61;99737.56;5097485;28;20024;-66
2023/02/18 01:02:15;;;;;;;29.35;4.35;;;;;;;7.80;72.88;99749.91;5099029;28;20540;-66
2023/02/18 01:04:40;;;;;;;18.73;4.07;;;;;;;7.58;73.12;99733.22;5100247;28;20036;-66
2023/02/18 01:07:06;;;;;;;31.08;4.90;;;;;;;7.81;71.99;99772.97;5097442;28;20027;-66
2023/02/18 01:09:31;;;;;;;23.65;4.90;;;;;;;7.70;72.01;99779.78;5096373;28;20110;-66
2023/02/18 01:11:57;;;;;;;23.60;5.38;;;;;;;7.54;72.77;99760.38;5095021;28;20062;-66
2023/02/18 01:14:23;;;;;;;17.77;4.75;;;;;;;7.54;72.32;99771.09;5074971;28;20502;-66
2023/02/18 01:16:48;;;;;;;21.70;4.88;;;;;;;7.67;71.92;99769.47;5094955;28;20131;-66
2023/02/18 01:19:14;;;;;;;22.25;4.93;;;;;;;7.62;73.66;99788.00;5094579;28;20111;-66
2023/02/18 01:21:39;;;;;;;22.73;5.32;;;;;;;7.56;73.78;99760.19;5094633;28;20028;-65
2023/02/18 01:24:05;;;;;;;24.17;6.05;;;;;;;7.33;72.75;99768.63;5096089;28;20028;-66
2023/02/18 01:26:30;;;;;;;24.88;5.80;;;;;;;7.51;72.48;99806.31;5096157;28;20035;-65
2023/02/18 01:28:56;;;;;;;23.27;6.40;;;;;;;7.49;71.81;99797.66;5096275;28;20028;-66
2023/02/18 01:31:21;;;;;;;22.15;5.18;;;;;;;7.61;71.89;99830.00;5078905;28;20029;-66
2023/02/18 01:33:47;;;;;;;24.00;4.95;;;;;;;7.58;72.94;99811.66;5098081;28;20027;-65
2023/02/18 01:36:12;;;;;;;26.65;6.05;;;;;;;7.49;73.02;99821.75;5097122;28;20115;-66
2023/02/18 01:38:38;;;;;;;27.77;4.43;;;;;;;7.56;73.00;99853.91;5097694;28;20177;-66
2023/02/18 01:41:04;;;;;;;24.58;5.18;;;;;;;7.51;73.28;99848.31;5080119;28;20031;-66
2023/02/18 01:43:30;;;;;;;26.83;4.50;;;;;;;7.59;72.41;99860.72;5095903;28;20036;-66
2023/02/18 01:46:02;;;;;;;26.00;4.63;;;;;;;7.44;72.58;99866.22;5097361;28;20028;-66
2023/02/18 01:48:35;;;;;;;22.98;4.82;;;;;;;7.43;71.20;99851.19;5097371;28;20024;-66
2023/02/18 01:51:03;;;;;;;21.85;4.63;;;;;;;7.48;71.22;99878.16;5096672;28;20031;-67
2023/02/18 01:53:37;;;;;;;21.45;4.55;;;;;;;7.58;70.73;99877.78;5096143;28;20051;-66
2023/02/18 01:56:06;;;;;;;21.02;3.92;;;;;;;7.53;70.42;99879.22;5097644;28;20501;-65
2023/02/18 01:58:32;;;;;;;19.67;4.30;;;;;;;7.35;69.98;99891.50;5096943;28;20124;-66
2023/02/18 02:00:57;;;;;;;20.90;5.13;;;;;;;7.49;70.12;99902.06;5097228;28;20044;-66
2023/02/18 02:03:23;;;;;;;20.25;4.15;;;;;;;7.49;69.51;99894.03;5082454;28;20123;-66
2023/02/18 02:05:48;;;;;;;23.50;4.25;;;;;;;7.48;69.89;99905.78;5100340;28;20039;-65
2023/02/18 02:08:14;;;;;;;18.90;5.30;;;;;;;7.42;69.18;99909.25;5100224;28;20032;-66
2023/02/18 02:11:00;;;;;;;21.50;4.10;;;;;;;7.45;68.13;99906.19;5100114;28;20128;-66
2023/02/18 02:13:56;;;;;;;24.63;4.43;;;;;;;7.50;68.06;99916.28;5095269;28;20027;-66
2023/02/18 02:16:27;;;;;;;;;;;;;;;7.48;67.23;99895.06;5100129;28;20131;-65
2023/02/18 02:19:18;;;;;;;19.15;4.15;;;;;;;7.30;66.87;99908.16;5099634;28;19995;-66
2023/02/18 02:22:31;;;;;;;18.85;4.03;;;;;;;7.39;68.92;99920.34;5098684;28;20189;-66
2023/02/18 02:25:10;;;;;;;20.92;4.32;;;;;;;7.46;69.98;99910.50;5093682;28;20035;-66
2023/02/18 02:27:57;;;;;;;21.17;3.80;;;;;;;7.52;70.29;99924.94;5099691;28;20039;-66
2023/02/18 02:30:41;;;;;;;19.55;4.97;;;;;;;7.47;70.07;99943.44;5098414;28;20016;-66
2023/02/18 02:33:49;;;;;;;22.15;5.03;;;;;;;7.51;70.13;99929.44;5096779;28;20019;-65
2023/02/18 02:36:17;;;;;;;22.13;4.00;;;;;;;7.49;70.61;99915.44;5098352;28;20136;-66
2023/02/18 02:38:55;;;;;;;15.95;3.05;;;;;;;7.49;71.27;99944.06;5099409;28;20069;-66
2023/02/18 02:41:32;;;;;;;21.92;5.68;;;;;;;7.53;71.42;99945.31;5097567;28;20442;-66
2023/02/18 02:44:20;;;;;;;17.30;2.80;;;;;;;7.51;71.71;99940.16;5098910;28;20035;-66
2023/02/18 02:46:50;;;;;;;20.77;4.05;;;;;;;7.44;71.70;99952.69;5098377;28;20622;-66
2023/02/18 02:49:48;;;;;;;15.95;3.28;;;;;;;7.41;71.04;99944.22;5097721;28;20035;-66
2023/02/18 02:52:22;;;;;;;19.42;3.35;;;;;;;7.45;71.13;99940.97;5087067;28;20043;-66
2023/02/18 02:54:48;;;;;;;17.98;3.47;;;;;;;7.50;71.60;99946.53;5097900;28;20511;-65
2023/02/18 02:57:16;;;;;;;18.10;3.13;;;;;;;7.54;70.85;99963.03;5099256;28;20115;-65
2023/02/18 02:59:47;;;;;;;23.70;4.47;;;;;;;7.40;70.59;99967.50;5097254;28;20024;-66
2023/02/18 03:02:26;;;;;;;17.02;3.10;;;;;;;7.42;70.48;99946.72;5097375;28;20092;-66
2023/02/18 03:05:38;;;;;;;27.52;4.65;;;;;;;7.49;70.94;99950.25;5100191;28;20357;-66
2023/02/18 03:08:25;;;;;;;17.20;2.55;;;;;;;7.57;70.95;99964.47;5087349;28;20043;-66
2023/02/18 03:11:12;;;;;;;16.38;2.97;;;;;;;7.62;70.37;99970.06;5098804;28;20024;-66
2023/02/18 03:13:48;;;;;;;19.17;3.25;;;;;;;7.72;71.90;99983.91;5097959;28;20073;-66
2023/02/18 03:16:17;;;;;;;20.80;2.95;;;;;;;7.59;73.33;99967.78;5093779;28;20565;-66
2023/02/18 03:18:56;;;;;;;18.45;2.72;;;;;;;7.69;73.10;99979.78;5096009;28;20047;-66
2023/02/18 03:21:22;;;;;;;18.70;3.08;;;;;;;7.54;74.31;99987.13;5096854;28;20028;-66
2023/02/18 03:24:13;;;;;;;17.85;2.63;;;;;;;7.68;74.52;99988.84;5096975;28;20379;-65
2023/02/18 03:26:44;;;;;;;20.88;3.38;;;;;;;7.66;74.69;99990.88;5079985;28;20669;-65
2023/02/18 03:29:13;;;;;;;23.35;3.70;;;;;;;7.44;75.01;99998.19;5098840;28;20031;-66
2023/02/18 03:31:43;;;;;;;16.48;2.95;;;;;;;7.47;75.23;99991.63;5098436;28;20229;-66
2023/02/18 03:34:24;;;;;;;15.38;2.30;;;;;;;7.48;74.65;100004.81;5097032;28;20328;-66
2023/02/18 03:36:50;;;;;;;23.23;2.88;;;;;;;7.45;74.38;100015.94;5092695;28;20435;-66
2023/02/18 03:39:21;;;;;;;18.95;2.90;;;;;;;7.48;73.83;100015.53;5097208;28;20036;-66
2023/02/18 03:41:48;;;;;;;13.25;2.20;;;;;;;7.57;74.07;100015.34;5097186;28;20088;-66
2023/02/18 03:44:13;;;;;;;17.83;2.92;;;;;;;7.41;74.39;100013.81;5098028;28;20036;-65
2023/02/18 03:46:44;;;;;;;21.35;3.55;;;;;;;7.35;75.01;100017.28;5097116;28;20032;-66
2023/02/18 03:49:14;;;;;;;16.00;3.42;;;;;;;7.53;76.13;100031.81;5099007;28;20031;-65
2023/02/18 03:51:40;;;;;;;16.08;3.08;;;;;;;7.43;76.64;100036.69;5096430;28;20108;-66
2023/02/18 03:54:06;;;;;;;14.07;3.15;;;;;;;7.44;76.06;100034.84;5095569;28;20483;-65
2023/02/18 03:56:33;;;;;;;15.15;3.10;;;;;;;7.42;74.90;100029.69;5096834;28;20061;-66
2023/02/18 03:58:58;;;;;;;16.33;2.40;;;;;;;7.53;75.07;100052.41;5098187;28;20031;-66
2023/02/18 04:01:24;;;;;;;16.38;3.03;;;;;;;7.50;75.42;100026.84;5098951;28;20028;-66
2023/02/18 04:03:49;;;;;;;15.43;3.25;;;;;;;7.38;75.56;100017.72;5097190;28;20033;-66
2023/02/18 04:06:14;;;;;;;17.70;3.90;;;;;;;7.56;75.80;100046.66;5097054;28;20127;-65
2023/02/18 04:08:40;;;;;;;19.90;3.05;;;;;;;7.48;77.12;100042.28;5098506;28;20032;-66
2023/02/18 04:11:05;;;;;;;16.90;2.97;;;;;;;7.37;78.25;100034.81;5098677;28;20032;-65
2023/02/18 04:13:31;;;;;;;22.77;3.25;;;;;;;7.50;77.84;100050.94;5099051;28;20124;-66
2023/02/18 04:15:56;;;;;;;17.10;2.63;;;;;;;7.49;78.20;100043.94;5106488;28;20032;-66
2023/02/18 04:18:22;;;;;;;15.45;3.35;;;;;;;7.36;78.82;100043.88;5093706;28;20116;-65
2023/02/18 04:20:48;;;;;;;11.43;2.22;;;;;;;7.39;79.11;100051.50;5111226;28;20112;-67
2023/02/18 04:23:15;;;;;;;17.35;2.80;;;;;;;7.38;79.22;100044.47;5112105;28;20044;-66
2023/02/18 04:25:40;;;;;;;12.93;1.98;;;;;;;7.27;79.80;100053.88;5111198;28;20024;-66
2023/02/18 04:28:06;;;;;;;18.63;3.03;;;;;;;7.31;79.46;100062.34;5100348;28;20039;-66
2023/02/18 04:30:32;;;;;;;15.30;2.35;;;;;;;7.36;79.75;100061.78;5097250;28;20031;-66
2023/02/18 04:32:57;;;;;;;14.57;2.35;;;;;;;7.48;79.23;100058.34;5097681;28;20050;-66
2023/02/18 04:35:22;;;;;;;19.30;2.88;;;;;;;7.29;79.63;100046.50;5097039;28;20040;-65
2023/02/18 04:37:48;;;;;;;18.88;3.45;;;;;;;7.31;80.37;100062.34;5098779;28;20544;-66
2023/02/18 04:40:15;;;;;;;16.85;2.35;;;;;;;7.37;80.45;100050.88;5096874;28;20032;-66
2023/02/18 04:42:40;;;;;;;14.82;2.50;;;;;;;7.36;80.60;100067.13;5096572;28;20032;-66
2023/02/18 04:45:06;;;;;;;19.33;3.03;;;;;;;7.28;80.11;100044.84;5094683;28;20030;-66
2023/02/18 04:47:31;;;;;;;19.02;3.50;;;;;;;7.36;79.57;100062.59;5096675;28;20036;-66
2023/02/18 04:49:57;;;;;;;10.30;2.33;;;;;;;7.26;79.87;100059.44;5098041;28;20050;-66
2023/02/18 04:52:22;;;;;;;18.45;3.13;;;;;;;7.17;79.79;100009.78;5097195;28;20016;-65
2023/02/18 04:54:48;;;;;;;33.80;2.50;;;;;;;7.27;79.33;100034.34;5098077;28;20431;-66
2023/02/18 04:57:13;;;;;;;18.92;2.88;;;;;;;7.45;79.84;100064.09;5096241;28;20034;-65
2023/02/18 04:59:40;;;;;;;22.17;3.42;;;;;;;7.37;79.86;100056.22;5097493;28;20564;-66
2023/02/18 05:02:05;;;;;;;24.67;3.03;;;;;;;7.38;80.89;100063.22;5096865;28;20406;-66
2023/02/18 05:04:31;;;;;;;21.30;3.60;;;;;;;7.33;81.75;100057.63;5096598;28;20032;-66
2023/02/18 05:06:56;;;;;;;15.80;2.80;;;;;;;7.48;80.56;100058.34;5096530;28;20040;-66
2023/02/18 05:09:22;;;;;;;16.17;2.92;;;;;;;7.51;80.79;100052.59;5097073;28;20039;-66
2023/02/18 05:11:48;;;;;;;13.60;2.03;;;;;;;7.46;80.57;100056.91;5096672;28;20121;-66
2023/02/18 05:14:14;;;;;;;21.55;3.28;;;;;;;7.53;81.36;100065.78;5098345;28;20044;-66
2023/02/18 05:16:39;;;;;;;14.35;2.47;;;;;;;7.49;81.42;100054.66;5094108;28;20055;-66
2023/02/18 05:19:05;;;;;;;13.27;2.47;;;;;;;7.38;81.50;100049.00;5097373;28;20135;-66
2023/02/18 05:21:30;;;;;;;20.45;2.53;;;;;;;7.47;81.19;100054.00;5097565;28;20096;-66
2023/02/18 05:23:56;;;;;;;17.50;3.17;;;;;;;7.22;81.38;100034.09;5096050;28;20486;-66
2023/02/18 05:26:21;;;;;;;21.23;3.80;;;;;;;7.36;81.88;100061.78;5096694;28;20102;-67
2023/02/18 05:28:47;;;;;;;20.98;3.85;;;;;;;7.42;82.46;100058.31;5096549;28;20032;-66
2023/02/18 05:31:12;;;;;;;33.88;4.38;;;;;;;7.44;82.04;100061.59;5097700;28;20032;-66
2023/02/18 05:33:38;;;;;;;21.15;3.95;;;;;;;7.32;82.88;100057.81;5097621;28;20028;-66
2023/02/18 05:36:03;;;;;;;22.88;3.53;;;;;;;7.25;82.89;100060.44;5097200;28;20032;-66
2023/02/18 05:38:29;;;;;;;24.92;4.13;;;;;;;7.23;82.42;100060.66;5098135;28;20028;-66
2023/02/18 05:40:54;;;;;;;18.60;2.42;;;;;;;7.45;81.71;100071.28;5079445;28;20028;-67
2023/02/18 05:43:20;;;;;;;22.63;2.90;;;;;;;7.42;81.97;100064.50;5095433;28;20033;-66
2023/02/18 05:45:45;;;;;;;18.80;2.63;;;;;;;7.17;82.77;100055.25;5096096;28;20124;-66
2023/02/18 05:48:11;;;;;;;20.73;2.88;;;;;;;7.49;81.93;100061.84;5096838;28;20087;-66
2023/02/18 05:50:36;;;;;;;21.98;4.03;;;;;;;7.43;82.57;100074.16;5097384;28;20028;-66
2023/02/18 05:53:02;;;;;;;20.50;4.18;;;;;;;7.16;83.75;100077.69;5097449;28;20028;-66
2023/02/18 05:55:27;;;;;;;20.27;3.10;;;;;;;7.22;83.57;100072.41;5096020;28;20157;-66
2023/02/18 05:57:53;;;;;;;13.52;2.90;;;;;;;7.39;83.26;100080.94;5096598;28;20032;-65
2023/02/18 06:00:18;;;;;;;18.33;2.75;;;;;;;7.38;83.15;100073.91;5063022;28;20036;-66
2023/02/18 06:02:44;;;;;;;24.27;3.80;;;;;;;7.27;83.63;100066.44;5079662;28;20024;-66
2023/02/18 06:05:10;;;;;;;13.20;2.42;;;;;;;7.36;83.33;100073.31;5097587;28;20481;-66
2023/02/18 06:07:36;;;;;;;15.63;2.55;;;;;;;7.29;83.19;100072.44;5078370;28;20032;-66
2023/02/18 06:10:02;;;;;;;17.48;2.33;;;;;;;7.26;83.42;100070.97;5097160;28;20119;-65
2023/02/18 06:12:27;;;;;;;16.23;2.50;;;;;;;7.24;83.06;100058.81;5096933;28;20035;-66
2023/02/18 06:14:54;;;;;;;18.65;2.85;;;;;;;7.38;82.86;100075.78;5095151;28;20024;-66
2023/02/18 06:17:21;;;;;;;18.52;2.95;;;;;;;7.44;82.16;100062.44;5095172;28;20052;-66
2023/02/18 06:19:47;;;;;;;15.13;3.05;;;;;;;7.17;83.12;100055.25;5097509;28;20399;-66
2023/02/18 06:22:13;;;;;;;18.63;2.90;;;;;;;7.39;82.91;100070.25;5096390;28;20028;-66
2023/02/18 06:24:39;;;;;;;21.08;3.83;;;;;;;7.32;83.30;100073.88;5096485;28;20043;-66
2023/02/18 06:27:04;;;;;;;20.33;3.20;;;;;;;7.38;83.39;100065.88;5095596;28;20032;-66
2023/02/18 06:29:30;;;;;;;22.75;2.67;;;;;;;7.30;83.75;100080.25;5095277;28;20154;-66
2023/02/18 06:31:59;;;;;;;20.73;2.80;;;;;;;7.35;83.12;100082.38;5095610;28;20111;-66
2023/02/18 06:34:26;;;;;;;14.93;2.10;;;;;;;7.20;82.42;100082.44;5096404;28;20074;-65
2023/02/18 06:36:51;;;;;;;19.85;3.53;;;;;;;7.34;82.17;100095.94;5096131;28;20445;-66
2023/02/18 06:39:17;;;;;;;14.77;2.20;;;;;;;7.30;82.04;100090.97;5093149;28;20032;-67
2023/02/18 06:41:43;;;;;;;8.35;1.60;;;;;;;7.40;81.89;100101.31;5096887;28;20032;-66
2023/02/18 06:44:08;;;;;;;18.05;2.88;;;;;;;7.41;82.16;100088.75;5095999;28;20034;-66
2023/02/18 06:46:34;;;;;;;19.58;2.78;;;;;;;7.47;81.86;100096.84;5095989;28;20028;-66
2023/02/18 06:48:59;;;;;;;22.00;3.70;;;;;;;7.43;82.00;100092.91;5098379;28;20028;-67
2023/02/18 06:51:25;;;;;;;20.02;3.70;;;;;;;7.47;82.52;100096.84;5082305;28;20032;-66
2023/02/18 06:53:50;;;;;;;18.80;2.38;;;;;;;7.36;82.65;100101.91;5099544;28;20026;-66
2023/02/18 06:56:16;;;;;;;18.52;2.75;;;;;;;7.39;82.09;100088.97;5100609;28;20031;-67
2023/02/18 06:58:41;;;;;;;18.13;2.60;;;;;;;7.44;82.47;100094.56;5100734;28;20549;-66
2023/02/18 07:01:06;;;;;;;15.98;2.47;;;;;;;7.38;82.72;100087.28;5099591;28;20035;-66
2023/02/18 07:03:32;;;;;;;17.23;2.15;;;;;;;7.41;82.35;100089.59;5100720;28;20099;-66
2023/02/18 07:05:57;;;;;;;18.48;2.75;;;;;;;7.24;81.84;100045.44;5100347;28;20056;-66
2023/02/18 07:08:23;;;;;;;12.85;1.60;;;;;;;7.45;81.26;100098.03;5100495;28;20031;-66
2023/02/18 07:10:48;;;;;;;18.17;2.20;;;;;;;7.24;81.43;100072.19;5100380;28;20489;-65
2023/02/18 07:13:14;;;;;;;17.60;2.50;;;;;;;7.33;81.79;100100.47;5099239;28;20028;-66
2023/02/18 07:15:40;;;;;;;18.02;2.40;;;;;;;7.53;81.15;100098.72;5100515;28;20032;-66
2023/02/18 07:18:06;;;;;;;17.08;2.92;;;;;;;7.46;81.45;100111.25;5099389;28;20060;-66
2023/02/18 07:20:31;;;;;;;12.40;1.80;;;;;;;7.46;81.86;100108.56;5082211;28;20032;-66
2023/02/18 07:22:57;;;;;;;15.10;2.88;;;;;;;7.52;82.09;100105.13;5099923;28;20042;-66
2023/02/18 07:25:23;;;;;;;12.57;2.45;;;;;;;7.39;82.55;100097.00;5081120;28;20040;-66
2023/02/18 07:27:49;;;;;;;13.93;2.35;;;;;;;7.39;81.97;100102.34;5098921;28;20039;-66
2023/02/18 07:30:15;;;;;;;11.75;2.22;;;;;;;7.51;81.90;100105.31;5099131;28;20027;-67
2023/02/18 07:32:40;;;;;;;16.27;2.58;;;;;;;7.53;81.65;100109.44;5097107;28;20110;-69
2023/02/18 07:35:06;;;;;;;15.88;2.35;;;;;;;7.61;80.97;100113.81;5098903;28;20146;-69
2023/02/18 07:37:32;;;;;;;17.75;2.42;;;;;;;7.43;81.36;100086.72;5098916;28;20173;-65
2023/02/18 07:39:57;;;;;;;25.23;2.97;;;;;;;7.42;81.06;100085.09;5098698;28;20081;-66
2023/02/18 07:42:23;;;;;;;13.25;1.73;;;;;;;7.50;81.62;100107.16;5080703;28;20032;-68
2023/02/18 07:44:48;;;;;;;17.55;3.05;;;;;;;7.43;81.72;100114.31;5099040;28;20070;-66
2023/02/18 07:47:18;;;;;;;17.38;2.42;;;;;;;7.43;82.39;100108.97;5099225;28;20032;-68
2023/02/18 07:49:44;;;;;;;13.45;2.10;;;;;;;7.46;82.16;100113.94;5098520;28;20540;-67
2023/02/18 07:52:09;;;;;;;20.30;2.03;;;;;;;7.51;82.28;100118.69;5097471;28;20042;-67
2023/02/18 07:54:35;;;;;;;13.20;1.75;;;;;;;7.59;81.50;100115.88;5098938;28;20530;-67
2023/02/18 07:57:00;;;;;;;15.57;2.90;;;;;;;7.67;81.99;100137.13;5098819;28;20028;-67
2023/02/18 07:59:26;;;;;;;13.13;2.55;;;;;;;7.70;81.30;100127.88;5098579;28;20110;-67
2023/02/18 08:01:51;;;;;;;15.45;2.13;;;;;;;7.71;81.95;100130.34;5097384;28;20027;-68
2023/02/18 08:04:17;;;;;;;15.77;2.55;;;;;;;7.80;82.03;100127.53;5097553;28;20027;-67
2023/02/18 08:06:45;;;;;;;13.52;2.50;;;;;;;7.65;82.11;100138.34;5081417;28;20042;-67
2023/02/18 08:09:11;;;;;;;14.20;2.50;;;;;;;7.70;81.18;100135.91;5098471;28;20028;-67
2023/02/18 08:11:36;;;;;;;16.08;2.40;;;;;;;7.65;81.46;100133.84;5097864;28;20093;-66
2023/02/18 08:14:02;;;;;;;17.23;2.25;;;;;;;7.77;81.03;100145.63;5080321;28;20017;-67
2023/02/18 08:16:27;;;;;;;15.70;2.22;;;;;;;7.73;80.92;100138.19;5098326;28;20122;-67
2023/02/18 08:18:53;;;;;;;11.95;2.17;;;;;;;7.53;81.24;100119.31;5100452;28;20455;-67
2023/02/18 08:21:21;;;;;;;15.27;2.17;;;;;;;7.85;80.80;100152.69;5097065;28;20474;-67
2023/02/18 08:23:48;;;;;;;12.95;2.58;;;;;;;7.84;81.21;100152.88;5099767;28;20032;-67
2023/02/18 08:26:13;;;;;;;12.75;2.28;;;;;;;7.87;80.88;100150.63;5098256;28;20220;-67
2023/02/18 08:28:39;;;;;;;15.52;2.50;;;;;;;7.64;81.93;100150.06;5100020;28;20542;-66
2023/02/18 08:31:05;;;;;;;16.90;2.35;;;;;;;7.63;81.68;100148.44;5097921;28;20386;-66
2023/02/18 08:33:31;;;;;;;15.88;1.58;;;;;;;7.70;81.50;100144.75;5100110;28;20111;-67
2023/02/18 08:35:56;;;;;;;16.30;2.60;;;;;;;7.79;80.85;100153.47;5099447;28;20036;-66
2023/02/18 08:38:23;;;;;;;10.50;1.88;;;;;;;7.58;82.03;100134.78;5098371;28;20036;-66
2023/02/18 08:40:49;;;;;;;15.20;2.13;;;;;;;7.80;81.28;100147.09;5099724;28;20024;-66
2023/02/18 08:43:16;;;;;;;13.38;2.13;;;;;;;7.89;81.30;100145.91;5098244;28;20166;-66
2023/02/18 08:45:42;;;;;;;15.18;3.78;;;;;;;7.93;81.64;100152.53;5096951;28;20077;-67
2023/02/18 08:48:10;;;;;;;16.05;2.22;;;;;;;7.88;81.43;100154.13;5098103;28;20032;-67
2023/02/18 08:50:35;;;;;;;11.45;2.15;;;;;;;7.92;81.16;100142.84;5096706;28;20024;-66
2023/02/18 08:53:02;;;;;;;14.60;2.13;;;;;;;8.04;80.56;100142.28;5096883;28;20020;-68
2023/02/18 08:55:32;;;;;;;16.80;2.35;;;;;;;7.94;81.37;100151.50;5096869;28;20027;-66
2023/02/18 08:57:58;;;;;;;13.98;2.50;;;;;;;8.18;80.70;100162.75;5096585;28;20084;-67
2023/02/18 09:00:24;;;;;;;18.13;2.47;;;;;;;8.20;80.46;100158.84;5097145;28;20020;-67
2023/02/18 09:02:50;;;;;;;24.13;2.85;;;;;;;8.17;80.72;100156.56;5098031;28;20032;-67
2023/02/18 09:05:15;;;;;;;22.63;3.08;;;;;;;8.22;80.97;100166.69;5098711;28;20035;-67
2023/02/18 09:07:41;;;;;;;13.23;2.33;;;;;;;8.28;80.28;100173.09;5096913;28;20023;-67
2023/02/18 09:10:07;;;;;;;18.88;2.70;;;;;;;8.35;80.78;100172.09;5098011;28;20111;-68
2023/02/18 09:12:33;;;;;;;16.40;2.50;;;;;;;8.35;80.23;100173.97;5097720;28;20016;-67
2023/02/18 09:14:59;;;;;;;17.52;2.55;;;;;;;8.20;80.17;100152.66;5090807;28;20056;-68
2023/02/18 09:17:25;;;;;;;14.82;2.55;;;;;;;8.43;79.78;100187.22;5077722;28;20059;-67
2023/02/18 09:19:50;;;;;;;22.15;2.90;;;;;;;8.37;80.06;100180.75;5093822;28;20609;-68
2023/02/18 09:22:16;;;;;;;18.45;2.85;;;;;;;8.45;79.01;100183.31;5096571;28;20020;-67
2023/02/18 09:24:41;;;;;;;17.67;2.40;;;;;;;8.53;78.95;100194.88;5096013;28;20024;-68
2023/02/18 09:27:07;;;;;;;19.38;2.65;;;;;;;8.41;78.82;100190.13;5095427;28;20032;-68
2023/02/18 09:29:36;;;;;;;17.42;2.67;;;;;;;8.26;79.42;100194.75;5097046;28;20035;-69
2023/02/18 09:32:03;;;;;;;21.35;2.97;;;;;;;8.32;79.38;100193.94;5096474;28;20032;-67
2023/02/18 09:34:28;;;;;;;20.85;2.53;;;;;;;8.38;79.23;100190.50;5097176;28;20032;-67
2023/02/18 09:36:54;;;;;;;17.55;3.05;;;;;;;8.32;80.27;100198.50;5095987;28;20531;-68
2023/02/18 09:39:19;;;;;;;11.88;2.03;;;;;;;8.26;80.09;100186.69;5094058;28;20416;-67
2023/02/18 09:41:45;;;;;;;15.10;1.95;;;;;;;8.24;80.43;100207.50;5071491;28;20082;-67
2023/02/18 09:44:24;;;;;;;17.23;2.38;;;;;;;8.20;80.55;100200.91;5095951;28;20434;-68
2023/02/18 09:47:00;;;;;;;15.70;2.78;;;;;;;8.34;79.84;100207.97;5096193;28;20115;-68
2023/02/18 09:49:28;;;;;;;22.40;3.53;;;;;;;8.37;79.95;100210.25;5097309;28;20024;-68
2023/02/18 09:51:56;;;;;;;20.67;3.70;;;;;;;8.28;80.31;100206.09;5096242;28;20036;-68
2023/02/18 09:54:22;;;;;;;20.60;3.00;;;;;;;8.31;80.61;100199.50;5096951;28;20125;-67
2023/02/18 09:56:48;;;;;;;15.77;2.40;;;;;;;8.11;80.37;100192.22;5097702;28;20024;-67
2023/02/18 09:59:19;;;;;;;18.58;2.78;;;;;;;8.26;81.16;100218.03;5096101;28;20395;-68
2023/02/18 10:01:47;;;;;;;15.68;2.50;;;;;;;8.04;81.90;100218.13;5096809;28;20028;-67
2023/02/18 10:04:22;;;;;;;18.45;2.88;;;;;;;8.17;81.02;100217.38;5097009;28;20035;-68
2023/02/18 10:06:50;;;;;;;18.40;2.75;;;;;;;8.06;81.53;100216.06;5097452;28;20019;-68
2023/02/18 10:09:27;;;;;;;16.02;2.90;;;;;;;7.98;81.77;100221.59;5097491;28;20387;-68
2023/02/18 10:12:03;;;;;;;25.80;3.15;;;;;;;7.95;82.12;100206.75;5098082;28;20471;-68
2023/02/18 10:14:28;;;;;;;22.50;3.10;;;;;;;8.00;82.51;100217.69;5093910;28;20038;-67
2023/02/18 10:16:56;;;;;;;19.08;3.05;;;;;;;8.08;81.92;100226.59;5094024;28;20032;-67
2023/02/18 10:19:32;;;;;;;21.00;3.25;;;;;;;8.18;81.09;100229.75;5095383;28;20028;-67
2023/02/18 10:22:00;;;;;;;11.95;2.38;;;;;;;8.22;81.20;100214.94;5093671;28;20546;-68
2023/02/18 10:24:32;;;;;;;13.15;2.22;;;;;;;8.10;81.81;100225.38;5098803;28;20024;-67
2023/02/18 10:26:59;;;;;;;21.90;2.92;;;;;;;8.15;82.16;100224.78;5098565;28;20031;-68
2023/02/18 10:29:26;;;;;;;16.63;2.70;;;;;;;8.02;82.49;100222.03;5099044;28;20482;-68
2023/02/18 10:32:17;;;;;;;20.17;2.30;;;;;;;8.08;82.21;100223.91;5097762;28;20498;-68
2023/02/18 10:35:12;;;;;;;18.15;2.83;;;;;;;8.09;82.39;100207.66;5099503;28;20363;-67
2023/02/18 10:37:46;;;;;;;20.40;3.00;;;;;;;8.01;83.18;100229.22;5064486;28;20119;-68
2023/02/18 10:40:18;;;;;;;19.17;3.33;;;;;;;7.71;84.51;100201.81;5098747;28;20335;-68
2023/02/18 10:43:02;;;;;;;21.42;2.78;;;;;;;7.81;84.76;100223.72;5099017;28;20123;-68
2023/02/18 10:45:40;;;;;;;18.27;3.22;;;;;;;7.96;84.40;100232.50;5101231;28;20024;-68
2023/02/18 10:48:35;;;;;;;18.67;2.83;;;;;;;7.93;85.02;100222.19;5099502;28;20034;-68
2023/02/18 10:51:11;;;;;;;15.40;2.78;;;;;;;8.00;85.12;100227.56;5102501;28;20107;-68
2023/02/18 10:53:41;;;;;;;15.38;2.72;;;;;;;8.07;84.89;100225.75;5101073;28;20079;-68
2023/02/18 10:56:07;;;;;;;15.32;2.50;;;;;;;8.02;84.66;100224.72;5100257;28;20428;-69
2023/02/18 10:58:44;;;;;;;15.77;2.60;;;;;;;8.24;83.77;100229.81;5099512;28;20046;-68
2023/02/18 11:01:20;;;;;;;15.60;2.63;;;;;;;8.30;83.15;100236.19;5098883;28;20032;-68
2023/02/18 11:03:47;;;;;;;24.08;3.55;;;;;;;8.18;83.55;100227.09;5098037;28;20059;-68
2023/02/18 11:06:39;;;;;;;16.85;3.00;;;;;;;8.34;83.20;100232.09;5096374;28;20024;-70
2023/02/18 11:09:06;;;;;;;16.77;3.13;;;;;;;8.00;83.54;100195.44;5096201;28;20213;-68
2023/02/18 11:11:39;;;;;;;18.38;2.38;;;;;;;8.17;82.50;100238.81;5095199;28;20051;-68
2023/02/18 11:14:06;;;;;;;16.90;2.45;;;;;;;8.27;81.96;100233.09;5094848;28;20016;-68
2023/02/18 11:16:38;;;;;;;19.17;2.83;;;;;;;8.34;82.73;100231.28;5097336;28;20043;-67
2023/02/18 11:19:03;;;;;;;19.80;2.10;;;;;;;8.45;81.49;100233.44;5097234;28;20144;-68
2023/02/18 11:21:33;;;;;;;19.35;2.58;;;;;;;8.41;82.15;100241.06;5096160;28;20099;-69
2023/02/18 11:24:07;;;;;;;18.95;2.58;;;;;;;8.50;81.99;100236.31;5096663;28;20032;-68
2023/02/18 11:26:35;;;;;;;19.47;2.33;;;;;;;8.40;82.58;100228.66;5098714;28;20024;-68
2023/02/18 11:29:06;;;;;;;20.20;2.90;;;;;;;8.28;82.68;100222.19;5098276;28;20035;-68
2023/02/18 11:31:47;;;;;;;18.52;2.60;;;;;;;8.37;82.14;100233.56;5096906;28;20439;-68
2023/02/18 11:34:30;;;;;;;21.52;3.05;;;;;;;8.16;81.54;100195.09;5096787;28;20031;-68